Time;durP1;ratioP1;P1;durP2;ratioP2;P2;SDS_P1;SDS_P2;PMS_P1;PMS_P2;Temp;Humidity;BMP_temperature;BMP_pressure;BME280_temperature;BME280_humidity;BME280_pressure;Samples;Min_cycle;Max_cycle;Signal;HPM_P1;HPM_P2
2022/01/20 00:00:33;;;;;;;6.40;3.25;;;;;;;;;;5070644;28;20032;-74
2022/01/20 00:03:01;;;;;;;4.60;3.07;;;;;;;;;;5079137;28;20453;-73
2022/01/20 00:27:03;;;;;;;4.53;3.27;;;;;;;;;;5086532;28;20039;-73
2022/01/20 00:29:31;;;;;;;5.72;3.15;;;;;;;;;;5079716;28;20538;-78
2022/01/20 00:32:09;;;;;;;5.83;3.53;;;;;;;;;;5082964;28;20034;-77
2022/01/20 00:37:28;;;;;;;5.27;3.50;;;;;;;;;;5086158;28;20117;-76
2022/01/20 00:39:54;;;;;;;9.27;3.80;;;;;;;;;;5081631;28;20043;-76
2022/01/20 00:42:21;;;;;;;6.33;3.67;;;;;;;;;;5081775;28;20087;-74
2022/01/20 00:44:47;;;;;;;5.97;3.77;;;;;;;;;;5077436;28;20028;-77
2022/01/20 00:47:13;;;;;;;4.87;3.77;;;;;;;;;;5077418;28;20024;-77
2022/01/20 00:49:40;;;;;;;5.70;3.07;;;;;;;;;;5078889;28;20032;-77
2022/01/20 00:52:06;;;;;;;6.90;4.37;;;;;;;;;;5080971;28;20020;-74
2022/01/20 00:54:32;;;;;;;6.57;3.97;;;;;;;;;;5081935;28;20074;-74
2022/01/20 00:56:58;;;;;;;7.57;4.30;;;;;;;;;;5082021;28;20224;-74
2022/01/20 00:59:25;;;;;;;6.77;4.20;;;;;;;;;;5082165;28;20042;-74
2022/01/20 01:01:51;;;;;;;6.83;3.77;;;;;;;;;;5082649;28;20026;-75
2022/01/20 01:04:17;;;;;;;7.63;4.13;;;;;;;;;;5085272;28;20651;-73
2022/01/20 01:09:08;;;;;;;7.67;4.50;;;;;;;;;;5082292;28;20024;-74
2022/01/20 01:11:35;;;;;;;6.13;4.10;;;;;;;;;;5081943;28;20099;-74
2022/01/20 01:14:03;;;;;;;6.17;3.73;;;;;;;;;;5082028;28;20490;-74
2022/01/20 01:16:42;;;;;;;7.23;4.00;;;;;;;;;;5081332;28;20031;-74
2022/01/20 01:22:13;;;;;;;9.13;4.77;;;;;;;;;;5085295;28;20085;-74
2022/01/20 01:24:43;;;;;;;7.20;4.27;;;;;;;;;;5081450;28;20094;-74
2022/01/20 01:27:10;;;;;;;5.17;3.57;;;;;;;;;;5077029;28;20031;-74
2022/01/20 01:30:19;;;;;;;6.20;3.90;;;;;;;;;;5084179;28;20261;-74
2022/01/20 01:32:52;;;;;;;;;;;;;;;;;;5076895;28;20462;-73
2022/01/20 01:35:16;;;;;;;6.60;3.60;;;;;;;;;;5077149;28;20388;-74
2022/01/20 01:40:12;;;;;;;4.93;3.73;;;;;;;;;;5082293;28;20151;-73
2022/01/20 01:42:46;;;;;;;7.53;4.60;;;;;;;;;;5078527;28;20082;-74
2022/01/20 01:45:16;;;;;;;8.03;4.50;;;;;;;;;;5082157;28;20035;-73
2022/01/20 01:47:44;;;;;;;6.33;3.63;;;;;;;;;;5078421;28;20127;-74
2022/01/20 01:50:10;;;;;;;6.63;3.63;;;;;;;;;;5084241;28;20059;-74
2022/01/20 01:52:35;;;;;;;5.73;3.70;;;;;;;;;;5083228;28;20059;-75
2022/01/20 01:55:01;;;;;;;5.20;3.27;;;;;;;;;;5076782;28;20020;-74
2022/01/20 01:57:27;;;;;;;5.93;3.80;;;;;;;;;;5082775;28;20503;-75
2022/01/20 01:59:54;;;;;;;4.77;3.40;;;;;;;;;;5084317;28;20027;-74
2022/01/20 02:02:20;;;;;;;5.73;3.57;;;;;;;;;;5076954;28;20548;-74
2022/01/20 02:04:46;;;;;;;9.50;4.00;;;;;;;;;;5084048;28;20127;-74
2022/01/20 02:18:12;;;;;;;4.83;3.17;;;;;;;;;;5071960;28;20044;-73
2022/01/20 02:20:38;;;;;;;3.37;2.40;;;;;;;;;;5079272;28;20028;-73
2022/01/20 02:23:03;;;;;;;4.13;3.00;;;;;;;;;;5079567;28;20028;-74
2022/01/20 02:25:35;;;;;;;3.70;3.33;;;;;;;;;;5080728;28;20128;-74
2022/01/20 02:28:06;;;;;;;4.68;3.15;;;;;;;;;;5076095;28;20371;-74
2022/01/20 02:30:33;;;;;;;7.13;3.23;;;;;;;;;;5077290;28;20425;-74
2022/01/20 02:33:04;;;;;;;5.43;3.23;;;;;;;;;;5081216;28;20035;-74
2022/01/20 02:35:34;;;;;;;5.57;2.83;;;;;;;;;;5077491;28;20504;-73
2022/01/20 02:38:07;;;;;;;5.60;3.33;;;;;;;;;;5079327;28;20085;-74
2022/01/20 02:45:57;;;;;;;3.57;2.80;;;;;;;;;;5080570;28;20089;-74
2022/01/20 02:48:22;;;;;;;4.27;2.67;;;;;;;;;;5076808;28;20040;-74
2022/01/20 02:50:48;;;;;;;4.63;2.60;;;;;;;;;;5078433;28;20032;-73
2022/01/20 02:53:13;;;;;;;3.73;2.57;;;;;;;;;;5083133;28;20076;-77
2022/01/20 02:55:39;;;;;;;4.57;2.87;;;;;;;;;;5079116;28;20412;-77
2022/01/20 02:58:06;;;;;;;5.17;2.80;;;;;;;;;;5079187;28;20146;-77
2022/01/20 03:00:33;;;;;;;4.53;2.57;;;;;;;;;;5081687;28;20173;-76
2022/01/20 03:03:02;;;;;;;3.87;2.90;;;;;;;;;;5080123;28;20021;-75
2022/01/20 03:05:31;;;;;;;4.87;3.00;;;;;;;;;;5079563;28;20019;-77
2022/01/20 03:07:57;;;;;;;4.87;2.93;;;;;;;;;;5077372;28;20472;-76
2022/01/20 03:10:23;;;;;;;6.50;3.33;;;;;;;;;;5079771;28;20035;-77
2022/01/20 03:12:49;;;;;;;4.17;3.10;;;;;;;;;;5077477;28;20612;-76
2022/01/20 03:15:14;;;;;;;4.53;3.10;;;;;;;;;;5079347;28;20062;-76
2022/01/20 03:17:40;;;;;;;4.97;3.03;;;;;;;;;;5082328;28;20099;-77
2022/01/20 03:20:06;;;;;;;4.67;3.00;;;;;;;;;;5082694;28;20538;-77
2022/01/20 03:22:32;;;;;;;4.07;2.67;;;;;;;;;;5079807;28;20028;-75
2022/01/20 03:24:58;;;;;;;4.23;2.87;;;;;;;;;;5079302;28;20451;-77
2022/01/20 03:27:24;;;;;;;4.10;2.90;;;;;;;;;;5079750;28;20450;-74
2022/01/20 03:29:49;;;;;;;4.57;2.07;;;;;;;;;;5078472;28;20543;-77
2022/01/20 03:32:15;;;;;;;2.83;2.27;;;;;;;;;;5079711;28;20032;-77
2022/01/20 03:34:40;;;;;;;4.80;2.80;;;;;;;;;;5077935;28;20082;-77
2022/01/20 03:37:06;;;;;;;3.03;2.33;;;;;;;;;;5080649;28;20034;-77
2022/01/20 03:39:32;;;;;;;3.53;2.20;;;;;;;;;;5080717;28;20081;-76
2022/01/20 03:41:58;;;;;;;4.53;2.57;;;;;;;;;;5077775;28;20111;-76
2022/01/20 03:44:24;;;;;;;7.80;3.23;;;;;;;;;;5079027;28;20119;-74
2022/01/20 03:46:49;;;;;;;3.67;2.50;;;;;;;;;;5077246;28;20028;-73
2022/01/20 03:49:36;;;;;;;3.90;2.90;;;;;;;;;;5080490;28;20085;-74
2022/01/20 03:52:03;;;;;;;3.90;2.47;;;;;;;;;;5075286;28;20020;-75
2022/01/20 03:54:28;;;;;;;3.03;2.53;;;;;;;;;;5081296;28;20115;-73
2022/01/20 03:56:54;;;;;;;5.13;2.40;;;;;;;;;;5079205;28;20123;-74
2022/01/20 03:59:19;;;;;;;3.10;2.30;;;;;;;;;;5079742;28;20380;-73
2022/01/20 04:01:45;;;;;;;3.10;2.27;;;;;;;;;;5076533;28;20400;-74
2022/01/20 04:04:11;;;;;;;2.97;2.20;;;;;;;;;;5078876;28;20028;-74
2022/01/20 04:06:37;;;;;;;3.77;2.63;;;;;;;;;;5075174;28;20073;-74
2022/01/20 04:09:04;;;;;;;3.30;2.27;;;;;;;;;;5077924;28;20028;-74
2022/01/20 04:11:30;;;;;;;3.00;2.30;;;;;;;;;;5079821;28;20369;-73
2022/01/20 04:13:56;;;;;;;4.67;2.80;;;;;;;;;;5075808;28;20020;-73
2022/01/20 04:16:35;;;;;;;3.27;2.33;;;;;;;;;;5079098;28;20020;-73
2022/01/20 04:19:04;;;;;;;3.13;2.37;;;;;;;;;;5080389;28;20114;-77
2022/01/20 04:21:31;;;;;;;3.23;2.53;;;;;;;;;;5076101;28;20122;-77
2022/01/20 04:23:58;;;;;;;2.70;1.70;;;;;;;;;;5079264;28;20043;-75
2022/01/20 04:26:25;;;;;;;3.47;2.43;;;;;;;;;;5075708;28;20036;-77
2022/01/20 04:28:54;;;;;;;3.00;2.47;;;;;;;;;;5074949;28;20059;-74
2022/01/20 04:31:28;;;;;;;3.10;2.00;;;;;;;;;;5079639;28;20024;-74
2022/01/20 04:33:56;;;;;;;3.23;1.97;;;;;;;;;;5067961;28;20490;-74
2022/01/20 04:36:23;;;;;;;4.47;2.43;;;;;;;;;;5081113;28;20513;-73
2022/01/20 04:38:49;;;;;;;3.20;2.00;;;;;;;;;;5074261;28;20073;-73
2022/01/20 04:41:14;;;;;;;4.17;2.07;;;;;;;;;;5079277;28;20024;-74
2022/01/20 04:43:40;;;;;;;3.10;2.23;;;;;;;;;;5073933;28;20037;-74
2022/01/20 04:48:59;;;;;;;3.30;1.97;;;;;;;;;;5075446;28;20489;-74
2022/01/20 04:59:29;;;;;;;4.37;1.90;;;;;;;;;;5078290;28;20446;-74
2022/01/20 05:01:54;;;;;;;6.17;2.40;;;;;;;;;;5076693;28;20032;-74
2022/01/20 05:04:21;;;;;;;5.13;1.67;;;;;;;;;;5081133;28;20112;-74
2022/01/20 05:06:47;;;;;;;2.57;1.73;;;;;;;;;;5078033;28;20025;-73
2022/01/20 05:09:20;;;;;;;3.50;1.20;;;;;;;;;;5077498;28;20093;-74
2022/01/20 05:11:50;;;;;;;6.80;1.30;;;;;;;;;;5073925;28;20023;-74
2022/01/20 05:14:16;;;;;;;4.93;0.87;;;;;;;;;;5078616;28;20032;-73
2022/01/20 05:16:41;;;;;;;9.17;1.90;;;;;;;;;;5082413;28;20028;-74
2022/01/20 05:19:07;;;;;;;4.80;1.27;;;;;;;;;;5077482;28;20028;-74
2022/01/20 05:21:33;;;;;;;4.47;1.00;;;;;;;;;;5079848;28;20044;-74
2022/01/20 05:23:58;;;;;;;2.33;1.10;;;;;;;;;;5082043;28;20080;-75
2022/01/20 05:26:24;;;;;;;5.07;1.30;;;;;;;;;;5079864;28;20112;-76
2022/01/20 05:28:49;;;;;;;7.83;1.47;;;;;;;;;;5080213;28;20395;-73
2022/01/20 05:31:15;;;;;;;2.47;1.10;;;;;;;;;;5079981;28;20043;-74
2022/01/20 05:33:40;;;;;;;5.57;1.43;;;;;;;;;;5077198;28;20036;-74
2022/01/20 05:36:06;;;;;;;6.27;1.60;;;;;;;;;;5084910;28;20056;-74
2022/01/20 05:38:31;;;;;;;2.10;1.60;;;;;;;;;;5076779;28;20168;-74
2022/01/20 05:40:57;;;;;;;9.10;2.20;;;;;;;;;;5078854;28;20028;-74
2022/01/20 05:43:22;;;;;;;3.80;1.50;;;;;;;;;;5080796;28;20058;-74
2022/01/20 05:45:48;;;;;;;3.43;1.70;;;;;;;;;;5078476;28;20032;-74
2022/01/20 05:48:16;;;;;;;7.90;1.97;;;;;;;;;;5084429;28;20058;-75
2022/01/20 05:50:43;;;;;;;9.10;2.17;;;;;;;;;;5082402;28;20103;-74
2022/01/20 05:53:09;;;;;;;1.53;1.20;;;;;;;;;;5078279;28;20075;-73
2022/01/20 05:55:36;;;;;;;2.17;1.70;;;;;;;;;;5082140;28;20040;-75
2022/01/20 05:58:04;;;;;;;3.67;1.73;;;;;;;;;;5079578;28;20392;-75
2022/01/20 06:00:30;;;;;;;4.17;1.17;;;;;;;;;;5081971;28;20109;-76
2022/01/20 06:05:40;;;;;;;3.87;1.60;;;;;;;;;;5079576;28;20039;-77
2022/01/20 06:08:07;;;;;;;2.07;1.40;;;;;;;;;;5080755;28;20566;-75
2022/01/20 06:10:32;;;;;;;1.80;1.40;;;;;;;;;;5083874;28;21112;-77
2022/01/20 06:12:59;;;;;;;5.30;1.60;;;;;;;;;;5077302;28;20473;-76
2022/01/20 06:15:24;;;;;;;2.10;1.33;;;;;;;;;;5079031;28;20028;-77
2022/01/20 06:17:50;;;;;;;7.37;1.90;;;;;;;;;;5077484;28;20016;-75
2022/01/20 06:20:16;;;;;;;4.67;1.20;;;;;;;;;;5080351;28;20031;-76
2022/01/20 06:22:41;;;;;;;5.63;1.83;;;;;;;;;;5083487;28;20032;-77
2022/01/20 06:25:08;;;;;;;1.90;1.43;;;;;;;;;;5077873;28;20040;-76
2022/01/20 06:27:34;;;;;;;2.37;1.40;;;;;;;;;;5079842;28;20325;-76
2022/01/20 06:30:00;;;;;;;3.73;1.60;;;;;;;;;;5083854;28;20035;-76
2022/01/20 06:32:27;;;;;;;7.03;1.50;;;;;;;;;;5079182;28;20020;-75
2022/01/20 06:34:52;;;;;;;3.63;1.27;;;;;;;;;;5080930;28;20480;-77
2022/01/20 06:37:18;;;;;;;3.93;1.00;;;;;;;;;;5079660;28;20043;-78
2022/01/20 06:39:43;;;;;;;2.07;1.00;;;;;;;;;;5081511;28;20024;-78
2022/01/20 06:42:09;;;;;;;5.93;1.40;;;;;;;;;;5087659;28;20036;-77
2022/01/20 06:44:34;;;;;;;3.10;0.97;;;;;;;;;;5082353;28;20024;-77
2022/01/20 06:47:00;;;;;;;5.60;1.60;;;;;;;;;;5080678;28;20048;-76
2022/01/20 06:49:25;;;;;;;7.30;1.53;;;;;;;;;;5083312;28;20025;-76
2022/01/20 06:51:51;;;;;;;2.80;1.13;;;;;;;;;;5080372;28;20024;-78
2022/01/20 06:54:17;;;;;;;8.50;1.40;;;;;;;;;;5078742;28;20071;-77
2022/01/20 06:56:42;;;;;;;2.90;1.40;;;;;;;;;;5077802;28;20028;-76
2022/01/20 06:59:13;;;;;;;13.40;4.97;;;;;;;;;;5079397;28;20298;-75
2022/01/20 07:01:40;;;;;;;2.17;1.13;;;;;;;;;;5076862;28;20035;-77
2022/01/20 07:04:06;;;;;;;10.13;1.47;;;;;;;;;;5081835;28;20032;-78
2022/01/20 07:06:31;;;;;;;3.53;1.63;;;;;;;;;;5079877;28;20050;-76
2022/01/20 07:08:58;;;;;;;3.07;1.20;;;;;;;;;;5080732;28;20151;-74
2022/01/20 07:11:23;;;;;;;6.17;1.10;;;;;;;;;;5074009;28;20025;-75
2022/01/20 07:13:49;;;;;;;11.90;1.30;;;;;;;;;;5080654;28;20029;-74
2022/01/20 07:16:14;;;;;;;4.87;1.57;;;;;;;;;;5055809;28;20093;-72
2022/01/20 07:18:40;;;;;;;5.43;1.67;;;;;;;;;;5063550;28;20029;-73
2022/01/20 07:21:05;;;;;;;5.90;1.50;;;;;;;;;;5066374;28;20483;-74
2022/01/20 07:23:31;;;;;;;5.20;1.40;;;;;;;;;;5061036;28;20032;-74
2022/01/20 07:25:56;;;;;;;8.37;1.73;;;;;;;;;;5062296;28;20016;-74
2022/01/20 07:28:22;;;;;;;4.93;1.30;;;;;;;;;;5055194;28;20592;-74
2022/01/20 07:30:47;;;;;;;4.63;1.27;;;;;;;;;;5062165;28;20020;-72
2022/01/20 07:33:13;;;;;;;8.27;1.63;;;;;;;;;;5061231;28;20028;-73
2022/01/20 07:35:38;;;;;;;6.00;1.40;;;;;;;;;;5062387;28;20055;-72
2022/01/20 07:38:05;;;;;;;5.70;1.33;;;;;;;;;;5075327;28;20028;-73
2022/01/20 07:40:33;;;;;;;3.33;1.00;;;;;;;;;;5063283;28;20089;-72
2022/01/20 07:42:59;;;;;;;5.87;1.47;;;;;;;;;;5059742;28;20043;-74
2022/01/20 07:45:26;;;;;;;5.10;1.37;;;;;;;;;;5063124;28;20028;-72
2022/01/20 07:47:54;;;;;;;6.17;1.83;;;;;;;;;;5060001;28;20055;-74
2022/01/20 07:50:19;;;;;;;7.23;1.60;;;;;;;;;;5060664;28;20028;-70
2022/01/20 07:52:45;;;;;;;7.40;1.47;;;;;;;;;;5063779;28;20033;-70
2022/01/20 07:55:11;;;;;;;2.93;1.97;;;;;;;;;;5059938;28;20073;-72
2022/01/20 07:57:37;;;;;;;4.17;1.53;;;;;;;;;;5078425;28;20533;-74
2022/01/20 08:00:05;;;;;;;5.50;1.37;;;;;;;;;;5060604;28;20032;-72
2022/01/20 08:02:32;;;;;;;8.23;1.70;;;;;;;;;;5074264;28;20036;-73
2022/01/20 08:04:58;;;;;;;2.83;0.93;;;;;;;;;;5059149;28;20480;-74
2022/01/20 08:07:23;;;;;;;5.13;1.20;;;;;;;;;;5059410;28;20133;-74
2022/01/20 08:09:54;;;;;;;1.30;0.80;;;;;;;;;;5059882;28;20657;-73
2022/01/20 08:12:20;;;;;;;8.83;1.40;;;;;;;;;;5060482;28;20255;-72
2022/01/20 08:14:46;;;;;;;3.50;1.20;;;;;;;;;;5062515;28;20392;-73
2022/01/20 08:17:11;;;;;;;3.13;1.17;;;;;;;;;;5062106;28;20021;-73
2022/01/20 08:19:40;;;;;;;7.03;1.40;;;;;;;;;;5060721;28;20044;-73
2022/01/20 08:22:06;;;;;;;6.10;1.70;;;;;;;;;;5061291;28;20081;-73
2022/01/20 08:24:31;;;;;;;2.73;1.30;;;;;;;;;;5060366;28;20044;-72
2022/01/20 08:26:57;;;;;;;5.43;1.17;;;;;;;;;;5061431;28;20031;-74
2022/01/20 08:29:22;;;;;;;3.53;1.63;;;;;;;;;;5058979;28;20035;-71
2022/01/20 08:31:48;;;;;;;3.27;1.30;;;;;;;;;;5076152;28;20068;-73
2022/01/20 08:34:15;;;;;;;3.00;1.73;;;;;;;;;;5063275;28;20358;-75
2022/01/20 08:36:41;;;;;;;3.63;2.17;;;;;;;;;;5061851;28;20040;-73
2022/01/20 08:41:51;;;;;;;5.93;1.53;;;;;;;;;;5065165;28;20047;-73
2022/01/20 08:44:16;;;;;;;4.40;0.90;;;;;;;;;;5075025;28;20296;-73
2022/01/20 08:46:42;;;;;;;1.97;0.93;;;;;;;;;;5063991;28;20021;-72
2022/01/20 08:49:08;;;;;;;5.93;1.97;;;;;;;;;;5063855;28;20032;-73
2022/01/20 08:51:33;;;;;;;6.07;1.37;;;;;;;;;;5063945;28;21634;-72
2022/01/20 08:53:59;;;;;;;4.37;1.30;;;;;;;;;;5066286;28;20029;-76
2022/01/20 08:56:26;;;;;;;5.30;1.23;;;;;;;;;;5064757;28;20745;-73
2022/01/20 08:58:51;;;;;;;6.40;1.57;;;;;;;;;;5065480;28;20298;-72
2022/01/20 09:01:17;;;;;;;3.20;1.43;;;;;;;;;;5065989;28;20035;-74
2022/01/20 09:03:43;;;;;;;3.87;1.20;;;;;;;;;;5063226;28;20154;-71
2022/01/20 09:06:09;;;;;;;7.40;2.03;;;;;;;;;;5064856;28;20605;-74
2022/01/20 09:08:34;;;;;;;5.40;2.00;;;;;;;;;;5064309;28;20068;-73
2022/01/20 09:11:01;;;;;;;2.47;1.27;;;;;;;;;;5063383;28;20031;-72
2022/01/20 09:16:13;;;;;;;3.63;1.90;;;;;;;;;;5062672;28;20093;-74
2022/01/20 09:18:39;;;;;;;4.47;1.53;;;;;;;;;;5053422;28;20037;-72
2022/01/20 09:21:04;;;;;;;5.87;2.23;;;;;;;;;;5064966;28;20755;-75
2022/01/20 09:23:30;;;;;;;8.13;1.57;;;;;;;;;;5065108;28;20508;-75
2022/01/20 09:25:56;;;;;;;12.03;2.50;;;;;;;;;;5068034;28;20488;-77
2022/01/20 09:28:22;;;;;;;4.77;1.90;;;;;;;;;;5061219;28;20051;-75
2022/01/20 09:30:49;;;;;;;12.67;1.50;;;;;;;;;;5064768;28;20509;-77
2022/01/20 09:33:23;;;;;;;5.97;0.80;;;;;;;;;;5066137;28;20457;-78
2022/01/20 09:35:50;;;;;;;2.30;0.50;;;;;;;;;;5069770;28;20546;-76
2022/01/20 09:38:15;;;;;;;8.07;0.80;;;;;;;;;;5061323;28;20220;-75
2022/01/20 09:40:42;;;;;;;1.83;0.80;;;;;;;;;;5060714;28;20032;-76
2022/01/20 09:43:11;;;;;;;5.30;1.13;;;;;;;;;;5066841;28;20035;-78
2022/01/20 09:45:37;;;;;;;1.90;0.70;;;;;;;;;;5069709;28;20094;-77
2022/01/20 09:48:03;;;;;;;3.53;0.67;;;;;;;;;;5079921;28;20093;-77
2022/01/20 09:50:30;;;;;;;2.07;0.60;;;;;;;;;;5067125;28;20032;-77
2022/01/20 09:53:01;;;;;;;2.63;0.90;;;;;;;;;;5063933;28;20052;-75
2022/01/20 09:55:30;;;;;;;4.40;1.30;;;;;;;;;;5063460;28;20078;-76
2022/01/20 09:57:56;;;;;;;6.60;1.20;;;;;;;;;;5062613;28;20056;-75
2022/01/20 10:00:21;;;;;;;2.00;0.90;;;;;;;;;;5064954;28;20545;-79
2022/01/20 10:02:53;;;;;;;4.83;1.30;;;;;;;;;;5062121;28;20378;-77
2022/01/20 10:05:32;;;;;;;8.48;1.30;;;;;;;;;;5066790;28;20020;-76
2022/01/20 10:08:07;;;;;;;8.83;1.13;;;;;;;;;;5060356;28;20033;-76
2022/01/20 10:10:57;;;;;;;8.03;1.27;;;;;;;;;;5064858;28;20519;-79
2022/01/20 10:13:29;;;;;;;9.83;1.57;;;;;;;;;;5057875;28;20067;-78
2022/01/20 10:16:10;;;;;;;3.95;1.50;;;;;;;;;;5068659;28;20051;-74
2022/01/20 10:19:02;;;;;;;4.33;1.23;;;;;;;;;;5077614;28;20127;-79
2022/01/20 10:21:33;;;;;;;8.18;1.48;;;;;;;;;;5068723;28;20473;-77
2022/01/20 10:24:11;;;;;;;7.17;1.63;;;;;;;;;;5055618;28;20047;-77
2022/01/20 10:26:40;;;;;;;6.57;1.30;;;;;;;;;;5064498;28;20043;-75
2022/01/20 10:29:14;;;;;;;3.77;1.23;;;;;;;;;;5062273;28;20144;-79
2022/01/20 10:31:51;;;;;;;9.20;1.67;;;;;;;;;;5064978;28;20522;-76
2022/01/20 10:34:19;;;;;;;8.20;1.77;;;;;;;;;;5075943;28;20029;-77
2022/01/20 10:36:54;;;;;;;7.30;1.67;;;;;;;;;;5059280;28;20060;-75
2022/01/20 10:39:44;;;;;;;7.33;1.10;;;;;;;;;;5064694;28;20035;-78
2022/01/20 10:42:12;;;;;;;4.60;0.90;;;;;;;;;;5060890;28;20039;-75
2022/01/20 10:44:49;;;;;;;9.03;1.90;;;;;;;;;;5068155;28;20047;-77
2022/01/20 10:47:21;;;;;;;3.73;1.70;;;;;;;;;;5060311;28;20085;-75
2022/01/20 10:49:47;;;;;;;3.45;1.25;;;;;;;;;;5062612;28;20123;-76
2022/01/20 10:52:19;;;;;;;3.53;1.20;;;;;;;;;;5063301;28;20463;-77
2022/01/20 10:54:51;;;;;;;9.38;1.40;;;;;;;;;;5061529;28;20036;-74
2022/01/20 10:57:25;;;;;;;4.30;1.10;;;;;;;;;;5059045;28;20043;-76
2022/01/20 10:59:58;;;;;;;4.57;1.77;;;;;;;;;;5064994;28;20046;-76
2022/01/20 11:02:29;;;;;;;9.03;3.57;;;;;;;;;;5062969;28;20174;-76
2022/01/20 11:04:55;;;;;;;4.27;1.23;;;;;;;;;;5046359;28;20043;-76
2022/01/20 11:07:21;;;;;;;4.10;1.23;;;;;;;;;;5061302;28;20468;-77
2022/01/20 11:09:52;;;;;;;4.13;1.27;;;;;;;;;;5047656;28;20039;-74
2022/01/20 11:12:18;;;;;;;7.57;1.90;;;;;;;;;;5060786;28;20053;-78
2022/01/20 11:14:45;;;;;;;7.27;2.63;;;;;;;;;;5062578;28;20029;-77
2022/01/20 11:17:20;;;;;;;4.87;1.23;;;;;;;;;;5066895;28;20409;-78
2022/01/20 11:19:47;;;;;;;4.63;0.80;;;;;;;;;;5063211;28;20032;-77
2022/01/20 11:22:13;;;;;;;4.77;0.93;;;;;;;;;;5066404;28;20181;-74
2022/01/20 11:24:42;;;;;;;2.60;1.20;;;;;;;;;;5063749;28;20036;-77
2022/01/20 11:27:11;;;;;;;3.60;0.83;;;;;;;;;;5061143;28;20031;-76
2022/01/20 11:29:51;;;;;;;5.77;1.27;;;;;;;;;;5061724;28;20113;-77
2022/01/20 11:32:24;;;;;;;5.17;1.00;;;;;;;;;;5048178;28;20089;-77
2022/01/20 11:35:07;;;;;;;5.47;1.50;;;;;;;;;;5062794;28;20171;-76
2022/01/20 11:37:36;;;;;;;5.33;1.33;;;;;;;;;;5061187;28;20035;-78
2022/01/20 11:40:19;;;;;;;5.43;1.23;;;;;;;;;;5061361;28;20068;-78
2022/01/20 11:42:59;;;;;;;3.47;1.40;;;;;;;;;;5068381;28;20028;-76
2022/01/20 11:45:32;;;;;;;5.17;0.83;;;;;;;;;;5060728;28;20035;-76
2022/01/20 11:48:10;;;;;;;9.70;1.40;;;;;;;;;;5057903;28;20029;-76
2022/01/20 11:50:36;;;;;;;6.43;1.77;;;;;;;;;;5059541;28;20493;-77
2022/01/20 11:53:20;;;;;;;3.47;1.27;;;;;;;;;;5060475;28;20036;-74
2022/01/20 11:55:47;;;;;;;8.10;1.10;;;;;;;;;;5062436;28;20143;-76
2022/01/20 11:58:16;;;;;;;4.87;1.30;;;;;;;;;;5060359;28;20104;-77
2022/01/20 12:00:41;;;;;;;1.70;1.00;;;;;;;;;;5062968;28;20380;-79
2022/01/20 12:03:13;;;;;;;10.33;1.30;;;;;;;;;;5064800;28;20032;-77
2022/01/20 12:05:39;;;;;;;5.20;1.70;;;;;;;;;;5067129;28;20041;-74
2022/01/20 12:08:11;;;;;;;5.33;1.17;;;;;;;;;;5061922;28;20047;-79
2022/01/20 12:10:37;;;;;;;;;;;;;;;;;;5069004;28;20037;-75
2022/01/20 12:13:21;;;;;;;4.40;1.33;;;;;;;;;;5062683;28;19988;-76
2022/01/20 12:15:58;;;;;;;2.53;1.00;;;;;;;;;;5068516;28;20039;-75
2022/01/20 12:18:25;;;;;;;5.40;1.70;;;;;;;;;;5062015;28;20016;-75
2022/01/20 12:20:52;;;;;;;3.97;1.57;;;;;;;;;;5063789;28;20039;-75
2022/01/20 12:23:19;;;;;;;5.00;1.33;;;;;;;;;;5064601;28;20028;-76
2022/01/20 12:25:46;;;;;;;5.17;1.23;;;;;;;;;;5068363;28;20553;-75
2022/01/20 12:28:15;;;;;;;3.97;1.40;;;;;;;;;;5082086;28;20025;-77
2022/01/20 12:30:47;;;;;;;11.93;1.30;;;;;;;;;;5067067;28;20046;-77
2022/01/20 12:33:15;;;;;;;9.50;1.50;;;;;;;;;;5079548;28;20055;-76
2022/01/20 12:35:50;;;;;;;4.53;1.20;;;;;;;;;;5065897;28;20064;-76
2022/01/20 12:38:41;;;;;;;4.73;1.20;;;;;;;;;;5080582;28;20032;-74
2022/01/20 12:41:11;;;;;;;7.80;1.40;;;;;;;;;;5068460;28;20032;-76
2022/01/20 12:43:47;;;;;;;7.20;1.83;;;;;;;;;;5069921;28;20032;-75
2022/01/20 12:46:14;;;;;;;4.50;1.20;;;;;;;;;;5067598;28;20032;-77
2022/01/20 12:49:08;;;;;;;8.07;2.03;;;;;;;;;;5078882;28;20074;-77
2022/01/20 12:51:38;;;;;;;5.70;1.33;;;;;;;;;;5069516;28;20032;-76
2022/01/20 12:54:12;;;;;;;2.67;1.43;;;;;;;;;;5083396;28;20511;-76
2022/01/20 12:56:44;;;;;;;4.00;1.20;;;;;;;;;;5068718;28;20031;-75
2022/01/20 12:59:12;;;;;;;1.30;1.13;;;;;;;;;;5070675;28;20285;-74
2022/01/20 13:01:45;;;;;;;7.33;1.23;;;;;;;;;;5068830;28;20051;-77
2022/01/20 13:04:14;;;;;;;9.70;1.90;;;;;;;;;;5070865;28;20112;-78
2022/01/20 13:06:54;;;;;;;5.63;1.73;;;;;;;;;;5073357;28;20028;-77
2022/01/20 13:09:22;;;;;;;4.93;1.40;;;;;;;;;;5066543;28;20032;-77
2022/01/20 13:11:57;;;;;;;7.10;1.07;;;;;;;;;;5070833;28;20352;-75
2022/01/20 13:14:46;;;;;;;9.30;1.67;;;;;;;;;;5072134;28;20059;-78
2022/01/20 13:17:24;;;;;;;6.07;2.03;;;;;;;;;;5064844;28;20028;-76
2022/01/20 13:19:51;;;;;;;3.47;1.63;;;;;;;;;;5070194;28;20024;-77
2022/01/20 13:22:41;;;;;;;6.83;1.57;;;;;;;;;;5064829;28;20060;-75
2022/01/20 13:25:15;;;;;;;4.27;1.30;;;;;;;;;;5061127;28;20127;-76
2022/01/20 13:28:04;;;;;;;3.00;1.10;;;;;;;;;;5065840;28;20028;-75
2022/01/20 13:30:37;;;;;;;11.30;1.43;;;;;;;;;;5068146;28;20086;-76
2022/01/20 13:33:17;;;;;;;7.73;1.87;;;;;;;;;;5065392;28;20033;-78
2022/01/20 13:35:48;;;;;;;5.83;1.60;;;;;;;;;;5065198;28;20164;-77
2022/01/20 13:38:15;;;;;;;8.03;2.07;;;;;;;;;;5089115;28;20028;-77
2022/01/20 13:40:47;;;;;;;4.97;1.00;;;;;;;;;;5067130;28;20032;-75
2022/01/20 13:46:22;;;;;;;6.33;1.57;;;;;;;;;;5060781;28;20156;-74
2022/01/20 13:48:47;;;;;;;7.27;1.60;;;;;;;;;;5058948;28;20039;-75
2022/01/20 13:51:15;;;;;;;2.73;1.30;;;;;;;;;;5060944;28;20037;-74
2022/01/20 13:53:41;;;;;;;7.33;0.90;;;;;;;;;;5061041;28;20093;-76
2022/01/20 13:56:11;;;;;;;2.47;1.23;;;;;;;;;;5061864;28;20535;-76
2022/01/20 13:58:38;;;;;;;5.03;1.60;;;;;;;;;;5058693;28;20044;-77
2022/01/20 14:01:08;;;;;;;8.93;1.90;;;;;;;;;;5054954;28;20111;-75
2022/01/20 14:03:34;;;;;;;5.17;2.00;;;;;;;;;;5062782;28;20036;-78
2022/01/20 14:05:59;;;;;;;3.47;1.47;;;;;;;;;;5063656;28;20047;-75
2022/01/20 14:08:26;;;;;;;2.10;0.83;;;;;;;;;;5061451;28;20028;-77
2022/01/20 14:10:52;;;;;;;3.27;0.90;;;;;;;;;;5065336;28;20107;-75
2022/01/20 14:13:18;;;;;;;4.20;1.50;;;;;;;;;;5077867;28;20029;-78
2022/01/20 14:15:45;;;;;;;3.83;1.00;;;;;;;;;;5069614;28;20086;-77
2022/01/20 14:18:10;;;;;;;5.53;1.60;;;;;;;;;;5077196;28;20114;-75
2022/01/20 14:20:37;;;;;;;9.23;1.40;;;;;;;;;;5068680;28;20111;-77
2022/01/20 14:23:05;;;;;;;8.10;1.50;;;;;;;;;;5062151;28;20037;-76
2022/01/20 14:25:32;;;;;;;8.83;1.60;;;;;;;;;;5070644;28;20036;-78
2022/01/20 14:27:58;;;;;;;6.00;1.53;;;;;;;;;;5070387;28;20040;-77
2022/01/20 14:30:26;;;;;;;3.90;1.57;;;;;;;;;;5068534;28;20020;-77
2022/01/20 14:32:53;;;;;;;15.93;1.83;;;;;;;;;;5068079;28;20140;-76
2022/01/20 14:35:20;;;;;;;9.50;2.20;;;;;;;;;;5076211;28;20144;-76
2022/01/20 14:37:46;;;;;;;7.80;1.20;;;;;;;;;;5078932;28;20116;-75
2022/01/20 14:40:18;;;;;;;12.67;1.97;;;;;;;;;;5068117;28;20150;-77
2022/01/20 14:42:45;;;;;;;6.70;1.30;;;;;;;;;;5077778;28;20033;-77
2022/01/20 14:45:14;;;;;;;9.63;0.93;;;;;;;;;;5072782;28;20470;-75
2022/01/20 14:47:40;;;;;;;8.07;1.60;;;;;;;;;;5063289;28;20033;-76
2022/01/20 14:50:07;;;;;;;4.90;1.27;;;;;;;;;;5067861;28;20334;-76
2022/01/20 14:52:34;;;;;;;8.33;1.80;;;;;;;;;;5081927;28;20408;-77
2022/01/20 14:55:00;;;;;;;9.43;1.93;;;;;;;;;;5074867;28;20024;-77
2022/01/20 14:57:26;;;;;;;8.90;1.90;;;;;;;;;;5067419;28;20047;-77
2022/01/20 14:59:52;;;;;;;7.27;1.43;;;;;;;;;;5072648;28;20090;-75
2022/01/20 15:02:18;;;;;;;7.77;1.43;;;;;;;;;;5057667;28;20033;-77
2022/01/20 15:04:44;;;;;;;4.00;1.20;;;;;;;;;;5071578;28;20502;-76
2022/01/20 15:07:12;;;;;;;5.47;1.50;;;;;;;;;;5074240;28;20036;-76
2022/01/20 15:09:38;;;;;;;8.57;1.23;;;;;;;;;;5069094;28;20426;-76
2022/01/20 15:12:07;;;;;;;2.27;1.00;;;;;;;;;;5070112;28;20119;-77
2022/01/20 15:14:33;;;;;;;6.80;1.60;;;;;;;;;;5077737;28;20091;-76
2022/01/20 15:16:58;;;;;;;6.47;1.37;;;;;;;;;;5060890;28;20411;-76
2022/01/20 15:19:24;;;;;;;10.30;1.50;;;;;;;;;;5067075;28;20037;-77
2022/01/20 15:21:50;;;;;;;7.27;1.63;;;;;;;;;;5074753;28;20038;-76
2022/01/20 15:24:16;;;;;;;13.03;1.80;;;;;;;;;;5070574;28;20173;-76
2022/01/20 15:26:42;;;;;;;8.20;1.50;;;;;;;;;;5064546;28;20044;-77
2022/01/20 15:29:08;;;;;;;4.47;1.50;;;;;;;;;;5066766;28;20035;-77
2022/01/20 15:31:36;;;;;;;7.80;1.07;;;;;;;;;;5064841;28;20436;-77
2022/01/20 15:34:04;;;;;;;39.20;11.17;;;;;;;;;;5099522;28;20488;-76
2022/01/20 15:36:30;;;;;;;4.20;1.07;;;;;;;;;;5087554;28;20052;-77
2022/01/20 15:38:55;;;;;;;10.63;2.20;;;;;;;;;;5065812;28;20085;-77
2022/01/20 15:41:21;;;;;;;7.90;1.37;;;;;;;;;;5074569;28;20039;-76
2022/01/20 15:43:46;;;;;;;4.90;1.70;;;;;;;;;;5064213;28;20032;-75
2022/01/20 15:46:12;;;;;;;11.67;2.90;;;;;;;;;;5071521;28;20056;-75
2022/01/20 15:48:38;;;;;;;4.37;1.53;;;;;;;;;;5067189;28;20073;-76
2022/01/20 15:51:04;;;;;;;3.73;1.70;;;;;;;;;;5082607;28;20426;-76
2022/01/20 15:53:30;;;;;;;4.20;1.10;;;;;;;;;;5057560;28;20034;-76
2022/01/20 15:55:56;;;;;;;8.57;1.80;;;;;;;;;;5060056;28;20068;-77
2022/01/20 15:58:21;;;;;;;3.57;1.70;;;;;;;;;;5060558;28;20540;-77
2022/01/20 16:00:47;;;;;;;7.43;1.50;;;;;;;;;;5061304;28;20036;-77